Time;durP1;ratioP1;P1;durP2;ratioP2;P2;SDS_P1;SDS_P2;PMS_P1;PMS_P2;Temp;Humidity;BMP_temperature;BMP_pressure;BME280_temperature;BME280_humidity;BME280_pressure;Samples;Min_cycle;Max_cycle;Signal;HPM_P1;HPM_P2
2021/07/06 00:01:19;;;;;;;13.90;5.85;;;13.80;99.90;;;;;;4982727;28;20101;-94
2021/07/06 00:03:45;;;;;;;9.68;5.88;;;13.80;99.90;;;;;;4982721;28;20200;-95
2021/07/06 00:06:10;;;;;;;13.90;6.72;;;13.80;99.90;;;;;;4981169;28;20022;-94
2021/07/06 00:08:36;;;;;;;9.80;6.10;;;13.80;99.90;;;;;;4978806;28;20034;-95
2021/07/06 00:11:02;;;;;;;14.30;6.35;;;13.70;99.90;;;;;;4979012;28;20026;-95
2021/07/06 00:13:28;;;;;;;13.98;6.85;;;13.70;99.90;;;;;;4979231;28;20050;-94
2021/07/06 00:15:53;;;;;;;9.63;6.00;;;13.70;99.90;;;;;;4979705;28;20022;-96
2021/07/06 00:18:19;;;;;;;12.77;6.60;;;13.70;99.90;;;;;;4980994;28;20038;-94
2021/07/06 00:20:45;;;;;;;14.82;7.20;;;13.70;99.90;;;;;;4980657;28;20030;-95
2021/07/06 00:23:11;;;;;;;10.57;6.07;;;13.60;99.90;;;;;;4979903;28;20550;-94
2021/07/06 00:25:37;;;;;;;10.27;6.13;;;13.60;99.90;;;;;;4984551;28;20033;-95
2021/07/06 00:28:02;;;;;;;8.98;6.20;;;13.60;99.90;;;;;;5002548;28;20019;-96
2021/07/06 00:30:28;;;;;;;9.52;6.13;;;13.70;99.90;;;;;;5002266;28;20010;-95
2021/07/06 00:32:54;;;;;;;11.05;6.32;;;13.70;99.90;;;;;;4995458;28;20027;-95
2021/07/06 00:35:20;;;;;;;11.70;5.97;;;13.70;99.90;;;;;;5006037;28;20038;-95
2021/07/06 00:37:46;;;;;;;9.55;6.47;;;13.70;99.90;;;;;;4988384;28;20069;-95
2021/07/06 00:40:13;;;;;;;11.35;6.07;;;13.70;99.90;;;;;;4984867;28;20551;-95
2021/07/06 00:42:43;;;;;;;8.52;5.55;;;13.80;99.90;;;;;;4982934;28;20026;-95
2021/07/06 00:45:10;;;;;;;8.88;4.72;;;13.70;99.90;;;;;;4981804;28;20026;-95
2021/07/06 00:47:38;;;;;;;7.97;4.70;;;13.70;99.90;;;;;;4983983;28;20034;-94
2021/07/06 00:50:23;;;;;;;6.43;4.63;;;13.70;99.90;;;;;;4986911;28;20022;-94
2021/07/06 00:52:51;;;;;;;7.15;4.00;;;13.60;99.90;;;;;;4987526;28;20026;-94
2021/07/06 00:55:17;;;;;;;3.65;2.45;;;13.60;99.90;;;;;;4984871;28;20173;-95
2021/07/06 00:57:44;;;;;;;6.20;2.70;;;13.60;99.90;;;;;;4988255;28;20083;-95
2021/07/06 01:00:21;;;;;;;2.97;2.10;;;13.40;99.90;;;;;;4982290;28;20030;-95
2021/07/06 01:02:47;;;;;;;4.40;1.77;;;13.40;99.90;;;;;;4981688;28;20026;-96
2021/07/06 01:05:16;;;;;;;2.95;1.77;;;13.30;99.90;;;;;;4978447;28;20026;-94
2021/07/06 01:07:42;;;;;;;5.65;1.85;;;13.20;99.90;;;;;;4979009;28;20480;-95
2021/07/06 01:10:09;;;;;;;2.03;1.65;;;13.20;99.90;;;;;;4980576;28;20029;-95
2021/07/06 01:12:36;;;;;;;1.95;1.52;;;13.10;99.90;;;;;;4988781;28;20038;-96
2021/07/06 01:15:05;;;;;;;1.95;1.73;;;13.10;99.90;;;;;;4989188;28;20026;-95
2021/07/06 01:17:31;;;;;;;3.83;1.80;;;13.10;99.90;;;;;;4985556;28;20030;-95
2021/07/06 01:19:59;;;;;;;4.70;1.60;;;13.10;99.90;;;;;;4982448;28;20037;-96
2021/07/06 01:22:30;;;;;;;3.35;1.50;;;13.10;99.90;;;;;;4980416;28;20472;-94
2021/07/06 01:24:56;;;;;;;6.55;1.58;;;13.10;99.90;;;;;;4981649;28;20086;-94
2021/07/06 01:27:23;;;;;;;3.28;1.10;;;13.00;99.90;;;;;;4982222;28;20046;-95
2021/07/06 01:29:49;;;;;;;1.75;1.10;;;13.00;99.90;;;;;;4978872;28;20026;-95
2021/07/06 01:32:15;;;;;;;7.60;1.20;;;12.90;99.90;;;;;;4980617;28;20096;-96
2021/07/06 01:34:41;;;;;;;3.40;0.90;;;12.90;99.90;;;;;;4985325;28;20050;-95
2021/07/06 01:37:07;;;;;;;5.30;0.98;;;12.90;99.90;;;;;;4989462;28;20023;-95
2021/07/06 01:39:32;;;;;;;2.50;0.88;;;12.90;99.90;;;;;;5009207;28;20046;-95
2021/07/06 01:41:58;;;;;;;1.95;0.93;;;12.90;99.90;;;;;;4999773;28;20026;-93
2021/07/06 01:44:26;;;;;;;1.50;0.90;;;12.80;99.90;;;;;;4997602;28;20492;-94
2021/07/06 01:46:52;;;;;;;1.20;1.10;;;12.80;99.90;;;;;;4999890;28;20022;-95
2021/07/06 01:49:17;;;;;;;2.50;0.90;;;12.80;99.90;;;;;;5000404;28;20027;-95
2021/07/06 01:51:44;;;;;;;4.72;1.80;;;12.80;99.90;;;;;;4999784;28;20049;-93
2021/07/06 01:54:11;;;;;;;2.83;1.10;;;12.80;99.90;;;;;;5000168;28;20026;-94
2021/07/06 01:56:46;;;;;;;1.88;1.02;;;12.80;99.90;;;;;;4999109;28;20030;-95
2021/07/06 01:59:13;;;;;;;2.28;0.90;;;12.80;99.90;;;;;;4998442;28;20034;-93
2021/07/06 02:01:39;;;;;;;2.35;1.13;;;12.70;99.90;;;;;;4999797;28;20086;-94
2021/07/06 02:04:06;;;;;;;2.15;1.08;;;12.70;99.90;;;;;;4997774;28;20037;-93
2021/07/06 02:06:32;;;;;;;2.28;1.30;;;12.70;99.90;;;;;;4990112;28;20126;-94
2021/07/06 02:08:59;;;;;;;1.98;0.90;;;12.70;99.90;;;;;;5010028;28;20027;-94
2021/07/06 02:11:25;;;;;;;2.17;0.90;;;12.80;99.90;;;;;;4978513;28;20023;-94
2021/07/06 02:13:50;;;;;;;3.03;1.25;;;12.70;99.90;;;;;;5009784;28;20034;-94
2021/07/06 02:16:16;;;;;;;0.70;0.70;;;12.70;99.90;;;;;;4978330;28;20086;-94
2021/07/06 02:18:43;;;;;;;1.73;1.10;;;12.70;99.90;;;;;;5009782;28;20129;-94
2021/07/06 02:21:09;;;;;;;3.78;1.00;;;12.70;99.90;;;;;;4978395;28;20023;-95
2021/07/06 02:23:35;;;;;;;1.08;0.90;;;12.70;99.90;;;;;;5009778;28;20660;-94
2021/07/06 02:26:04;;;;;;;1.30;0.98;;;12.70;99.90;;;;;;5009694;28;20058;-95
2021/07/06 02:28:30;;;;;;;2.25;0.85;;;12.70;99.90;;;;;;5009478;28;20023;-94
2021/07/06 02:30:56;;;;;;;5.00;1.58;;;12.70;99.90;;;;;;4978209;28;20026;-94
2021/07/06 02:33:22;;;;;;;1.35;1.08;;;12.80;99.90;;;;;;5009555;28;20023;-95
2021/07/06 02:35:49;;;;;;;0.60;0.60;;;12.70;99.90;;;;;;5009767;28;20086;-94
2021/07/06 02:38:16;;;;;;;1.02;0.70;;;12.70;99.90;;;;;;5009387;28;20078;-94
2021/07/06 02:40:43;;;;;;;2.47;0.60;;;12.70;99.90;;;;;;5010142;28;20078;-95
2021/07/06 02:43:08;;;;;;;1.20;0.50;;;12.70;99.90;;;;;;5011243;28;20038;-95
2021/07/06 02:45:34;;;;;;;0.65;0.50;;;12.70;99.90;;;;;;4980767;28;20026;-93
2021/07/06 02:48:00;;;;;;;0.60;0.60;;;12.70;99.90;;;;;;5010904;28;20023;-94
2021/07/06 02:50:27;;;;;;;1.65;0.40;;;12.70;99.90;;;;;;4989119;28;20118;-94
2021/07/06 02:52:54;;;;;;;0.40;0.40;;;12.70;99.90;;;;;;4991323;28;20122;-95
2021/07/06 02:55:20;;;;;;;1.05;0.30;;;12.80;99.90;;;;;;4977602;28;20031;-94
2021/07/06 02:57:47;;;;;;;0.30;0.30;;;12.80;99.90;;;;;;4976860;28;20062;-93
2021/07/06 03:00:22;;;;;;;0.52;0.43;;;12.80;99.90;;;;;;4978816;28;20031;-94
2021/07/06 03:02:49;;;;;;;0.32;0.30;;;12.80;99.90;;;;;;4977686;28;20018;-95
2021/07/06 03:05:17;;;;;;;0.20;0.20;;;12.90;99.90;;;;;;4977450;28;20031;-95
2021/07/06 03:07:44;;;;;;;0.30;0.30;;;12.80;99.90;;;;;;4979281;28;20027;-94
2021/07/06 03:10:12;;;;;;;0.20;0.20;;;12.90;99.90;;;;;;4981553;28;20027;-94
2021/07/06 03:12:40;;;;;;;1.20;0.30;;;12.90;99.90;;;;;;4984247;28;20030;-95
2021/07/06 03:15:07;;;;;;;0.52;0.40;;;12.90;99.90;;;;;;4982537;28;20511;-95
2021/07/06 03:17:33;;;;;;;0.80;0.50;;;12.90;99.90;;;;;;4982937;28;20484;-95
2021/07/06 03:20:01;;;;;;;1.48;0.40;;;12.90;99.90;;;;;;4982678;28;20046;-96
2021/07/06 03:22:30;;;;;;;0.55;0.30;;;12.90;99.90;;;;;;4988159;28;20038;-95
2021/07/06 03:24:56;;;;;;;0.88;0.45;;;12.90;99.90;;;;;;4981964;28;20031;-95
2021/07/06 03:27:23;;;;;;;0.60;0.40;;;12.90;99.90;;;;;;4979734;28;20023;-95
2021/07/06 03:29:49;;;;;;;0.43;0.43;;;12.90;99.90;;;;;;4983327;28;20030;-95
2021/07/06 03:32:17;;;;;;;1.63;0.50;;;12.90;99.90;;;;;;4986601;28;20030;-96
2021/07/06 03:34:43;;;;;;;0.43;0.43;;;12.90;99.90;;;;;;4982422;28;20202;-95
2021/07/06 03:37:10;;;;;;;0.95;0.43;;;12.90;99.90;;;;;;4980340;28;20031;-95
2021/07/06 03:39:40;;;;;;;0.55;0.50;;;12.90;99.90;;;;;;4979549;28;20055;-96
2021/07/06 03:42:08;;;;;;;1.70;0.50;;;13.00;99.90;;;;;;4979436;28;20034;-94
2021/07/06 03:44:34;;;;;;;0.90;0.57;;;13.00;99.90;;;;;;4980352;28;20604;-95
2021/07/06 03:47:02;;;;;;;0.70;0.60;;;13.00;99.90;;;;;;4980005;28;20030;-95
2021/07/06 03:49:28;;;;;;;2.08;0.68;;;13.00;99.90;;;;;;4977710;28;20034;-94
2021/07/06 03:51:54;;;;;;;2.38;0.95;;;13.00;99.90;;;;;;4978260;28;20023;-94
2021/07/06 03:54:20;;;;;;;0.70;0.52;;;13.10;99.90;;;;;;4978407;28;20027;-95
2021/07/06 03:56:45;;;;;;;2.47;0.80;;;13.10;99.90;;;;;;4977210;28;20093;-95
2021/07/06 03:59:11;;;;;;;0.90;0.73;;;13.10;99.90;;;;;;4976623;28;20109;-95
2021/07/06 04:01:37;;;;;;;1.35;0.73;;;13.10;99.90;;;;;;4977650;28;20030;-94
2021/07/06 04:04:04;;;;;;;2.00;0.85;;;13.10;99.90;;;;;;4976901;28;20054;-95
2021/07/06 04:06:30;;;;;;;2.38;1.20;;;13.10;99.90;;;;;;4977888;28;20431;-96
2021/07/06 04:08:56;;;;;;;0.73;0.73;;;13.10;99.90;;;;;;4977168;28;20030;-95
2021/07/06 04:11:22;;;;;;;2.92;1.75;;;13.20;99.90;;;;;;4977929;28;20022;-95
2021/07/06 04:13:47;;;;;;;1.33;0.90;;;13.20;99.90;;;;;;4982650;28;20026;-95
2021/07/06 04:16:14;;;;;;;1.50;1.40;;;13.20;99.90;;;;;;4981801;28;20019;-96
2021/07/06 04:18:40;;;;;;;1.30;1.20;;;13.20;99.90;;;;;;4979749;28;20054;-96
2021/07/06 04:21:07;;;;;;;4.32;1.58;;;13.20;99.90;;;;;;4981215;28;20031;-94
2021/07/06 04:23:34;;;;;;;2.83;1.50;;;13.20;99.90;;;;;;4978580;28;20030;-96
2021/07/06 04:26:01;;;;;;;3.83;1.40;;;13.20;99.90;;;;;;4975175;28;20035;-94
2021/07/06 04:28:27;;;;;;;2.38;1.67;;;13.20;99.90;;;;;;4975726;28;20473;-94
2021/07/06 04:30:52;;;;;;;2.47;1.35;;;13.20;99.90;;;;;;4975317;28;20030;-94
2021/07/06 04:33:18;;;;;;;2.70;1.52;;;13.20;99.90;;;;;;4975040;28;20023;-94
2021/07/06 04:35:43;;;;;;;3.63;1.70;;;13.30;99.90;;;;;;4976228;28;20035;-94
2021/07/06 04:38:09;;;;;;;6.60;2.10;;;13.20;99.90;;;;;;4981681;28;20058;-93
2021/07/06 04:40:35;;;;;;;7.45;1.88;;;13.30;99.90;;;;;;4985721;28;20568;-94
2021/07/06 04:43:01;;;;;;;2.40;1.60;;;13.20;99.90;;;;;;4977226;28;20031;-95
2021/07/06 04:45:27;;;;;;;2.58;1.67;;;13.20;99.90;;;;;;4980163;28;20034;-95
2021/07/06 04:47:53;;;;;;;4.75;1.40;;;13.30;99.90;;;;;;4999027;28;20030;-95
2021/07/06 04:50:19;;;;;;;3.08;1.70;;;13.20;99.90;;;;;;4998922;28;20029;-95
2021/07/06 04:52:47;;;;;;;4.93;1.70;;;13.20;99.90;;;;;;4992587;28;20070;-95
2021/07/06 04:55:15;;;;;;;6.15;1.75;;;13.20;99.90;;;;;;4986083;28;20033;-95
2021/07/06 04:57:41;;;;;;;7.22;1.60;;;13.20;99.90;;;;;;4987535;28;20031;-95
2021/07/06 05:00:09;;;;;;;3.30;2.03;;;13.20;99.90;;;;;;4984869;28;20038;-95
2021/07/06 05:02:35;;;;;;;7.15;2.10;;;13.20;99.90;;;;;;4984587;28;20031;-95
2021/07/06 05:05:03;;;;;;;5.10;1.80;;;13.20;99.90;;;;;;4987673;28;20030;-95
2021/07/06 05:07:28;;;;;;;7.47;2.05;;;13.20;99.90;;;;;;4982225;28;20033;-96
2021/07/06 05:09:54;;;;;;;6.70;1.80;;;13.20;99.90;;;;;;4980621;28;20019;-94
2021/07/06 05:12:20;;;;;;;6.68;2.20;;;13.20;99.90;;;;;;4976184;28;20069;-94
2021/07/06 05:14:46;;;;;;;6.43;2.10;;;13.20;99.90;;;;;;4974627;28;20081;-95
2021/07/06 05:17:11;;;;;;;9.77;2.42;;;13.20;99.90;;;;;;4974900;28;20046;-95
2021/07/06 05:19:37;;;;;;;6.53;2.30;;;13.20;99.90;;;;;;4975737;28;20046;-95
2021/07/06 05:22:03;;;;;;;6.55;2.40;;;13.20;99.90;;;;;;4975303;28;20085;-95
2021/07/06 05:24:28;;;;;;;10.70;2.10;;;13.20;99.90;;;;;;4975712;28;20027;-94
2021/07/06 05:26:54;;;;;;;11.90;2.88;;;13.20;99.90;;;;;;4975445;28;20074;-95
2021/07/06 05:29:20;;;;;;;5.28;2.33;;;13.20;99.90;;;;;;4974681;28;20035;-94
2021/07/06 05:31:46;;;;;;;8.88;2.55;;;13.20;99.90;;;;;;4975001;28;20139;-96
2021/07/06 05:34:11;;;;;;;6.43;2.33;;;13.20;99.90;;;;;;4974776;28;20035;-94
2021/07/06 05:36:37;;;;;;;4.68;2.28;;;13.20;99.90;;;;;;4974268;28;20081;-93
2021/07/06 05:39:06;;;;;;;10.45;2.28;;;13.20;99.90;;;;;;4973985;28;20592;-94
2021/07/06 05:41:32;;;;;;;7.40;2.38;;;13.20;99.90;;;;;;4974613;28;20485;-95
2021/07/06 05:43:58;;;;;;;10.80;2.70;;;13.30;99.90;;;;;;4974265;28;20030;-94
2021/07/06 05:46:24;;;;;;;8.00;2.83;;;13.30;99.90;;;;;;4973458;28;20022;-95
2021/07/06 05:48:49;;;;;;;10.85;2.10;;;13.30;99.90;;;;;;4974431;28;20038;-93
2021/07/06 05:51:15;;;;;;;8.80;2.15;;;13.30;99.90;;;;;;4973903;28;20477;-94
2021/07/06 05:53:43;;;;;;;9.23;2.60;;;13.30;99.90;;;;;;4975162;28;20026;-95
2021/07/06 05:56:09;;;;;;;11.23;2.83;;;13.30;99.90;;;;;;4974317;28;20027;-95
2021/07/06 05:58:35;;;;;;;11.45;2.78;;;13.30;99.90;;;;;;4974158;28;20503;-96
2021/07/06 06:01:00;;;;;;;10.18;2.28;;;13.30;99.90;;;;;;4975403;28;20030;-95
2021/07/06 06:03:26;;;;;;;10.57;2.88;;;13.40;99.90;;;;;;4976299;28;20031;-95
2021/07/06 06:05:52;;;;;;;19.95;3.08;;;13.40;99.90;;;;;;4975811;28;20031;-95
2021/07/06 06:08:17;;;;;;;7.93;2.28;;;13.50;99.90;;;;;;4981145;28;20031;-95
2021/07/06 06:10:45;;;;;;;9.82;2.05;;;13.50;99.90;;;;;;4989200;28;20050;-96
2021/07/06 06:13:12;;;;;;;8.30;2.55;;;13.60;99.90;;;;;;4989583;28;20030;-95
2021/07/06 06:16:03;;;;;;;10.80;3.15;;;13.60;99.90;;;;;;4993533;28;20031;-96
2021/07/06 06:18:29;;;;;;;10.18;2.28;;;13.70;99.90;;;;;;4995827;28;20106;-96
2021/07/06 06:24:31;;;;;;;10.98;3.53;;;13.80;99.90;;;;;;4984672;28;20049;-95
2021/07/06 06:26:57;;;;;;;8.77;2.40;;;13.90;99.90;;;;;;4992587;28;20099;-95
2021/07/06 06:29:23;;;;;;;8.48;2.40;;;13.90;99.90;;;;;;4977485;28;20019;-94
2021/07/06 06:31:49;;;;;;;8.05;2.90;;;13.90;99.90;;;;;;5003646;28;20037;-95
2021/07/06 06:34:20;;;;;;;10.75;2.83;;;14.00;99.90;;;;;;5012699;28;20014;-95
2021/07/06 06:36:48;;;;;;;13.73;2.70;;;14.10;99.90;;;;;;5015181;28;20053;-96
2021/07/06 06:39:55;;;;;;;11.75;2.50;;;14.10;99.90;;;;;;4990799;28;20408;-96
2021/07/06 06:42:22;;;;;;;7.30;2.20;;;14.10;99.90;;;;;;4960015;29;20032;-96
2021/07/06 06:44:48;;;;;;;10.15;2.42;;;14.10;99.90;;;;;;4958495;29;20118;-96
2021/07/06 06:47:15;;;;;;;9.68;1.80;;;14.00;99.90;;;;;;4958773;29;20028;-95
2021/07/06 06:49:44;;;;;;;7.68;2.28;;;14.00;99.90;;;;;;4963402;29;20027;-95
2021/07/06 06:53:01;;;;;;;7.15;1.88;;;14.00;99.90;;;;;;4959793;28;20035;-95
2021/07/06 06:55:49;;;;;;;2.92;1.10;;;13.90;99.90;;;;;;4969456;28;20103;-96
2021/07/06 06:58:22;;;;;;;4.97;1.38;;;14.00;99.90;;;;;;4974483;29;20053;-95
2021/07/06 07:00:49;;;;;;;5.15;1.50;;;14.00;99.90;;;;;;4980032;28;20034;-95
2021/07/06 07:03:17;;;;;;;3.60;1.65;;;14.00;99.90;;;;;;4980366;28;20022;-96
2021/07/06 07:05:43;;;;;;;5.78;1.50;;;14.10;99.90;;;;;;4961297;29;20053;-95
2021/07/06 07:08:14;;;;;;;6.22;1.38;;;14.10;99.90;;;;;;4981814;28;20027;-95
2021/07/06 07:10:40;;;;;;;7.85;2.13;;;14.20;99.90;;;;;;4989316;28;20032;-94
2021/07/06 07:13:07;;;;;;;5.95;1.42;;;14.20;99.90;;;;;;4949918;28;20027;-94
2021/07/06 07:15:33;;;;;;;10.82;1.90;;;14.30;99.90;;;;;;4951918;29;20094;-95
2021/07/06 07:17:59;;;;;;;5.70;1.65;;;14.30;99.90;;;;;;4958371;28;20041;-96
2021/07/06 07:20:24;;;;;;;8.85;1.85;;;14.30;99.90;;;;;;4959015;28;20023;-95
2021/07/06 07:22:50;;;;;;;11.02;2.45;;;14.30;99.90;;;;;;4956817;29;20586;-94
2021/07/06 07:25:16;;;;;;;6.97;1.73;;;14.30;99.90;;;;;;4963040;28;20031;-94
2021/07/06 07:27:42;;;;;;;8.95;2.10;;;14.20;99.90;;;;;;4943599;28;20062;-94
2021/07/06 07:30:10;;;;;;;8.02;2.08;;;14.10;99.90;;;;;;4953574;28;20031;-94
2021/07/06 07:32:36;;;;;;;6.05;1.90;;;14.10;99.90;;;;;;4963008;28;20039;-95
2021/07/06 07:35:02;;;;;;;10.13;2.45;;;14.00;99.90;;;;;;4967485;28;20035;-94
2021/07/06 07:37:29;;;;;;;9.35;2.08;;;14.00;99.90;;;;;;4962441;29;20035;-95
2021/07/06 07:39:55;;;;;;;6.28;1.73;;;13.90;99.90;;;;;;5008535;28;20054;-96
2021/07/06 07:42:21;;;;;;;6.95;1.10;;;13.90;99.90;;;;;;4967956;28;20022;-95
2021/07/06 07:44:47;;;;;;;7.22;1.40;;;13.90;99.90;;;;;;4977448;28;20030;-94
2021/07/06 07:47:13;;;;;;;3.35;0.90;;;13.80;99.90;;;;;;4987233;28;20022;-93
2021/07/06 07:49:39;;;;;;;3.58;1.10;;;13.80;99.90;;;;;;4975619;28;20086;-93
2021/07/06 07:52:06;;;;;;;4.50;1.20;;;13.70;99.90;;;;;;4964753;28;20022;-94
2021/07/06 07:54:32;;;;;;;9.75;1.20;;;13.70;99.90;;;;;;4986171;28;20022;-94
2021/07/06 07:56:58;;;;;;;5.03;1.55;;;13.70;99.90;;;;;;4975286;28;20014;-94
2021/07/06 07:59:24;;;;;;;7.40;1.52;;;13.70;99.90;;;;;;4971050;28;20058;-94
2021/07/06 08:01:49;;;;;;;6.05;1.23;;;13.80;99.90;;;;;;4976279;28;20499;-95
2021/07/06 08:04:15;;;;;;;4.88;1.33;;;13.80;99.90;;;;;;4965189;28;20035;-95
2021/07/06 08:06:41;;;;;;;10.45;1.40;;;13.90;99.90;;;;;;4978026;28;20098;-94
2021/07/06 08:09:08;;;;;;;9.85;2.55;;;14.00;99.90;;;;;;4970495;28;20034;-95
2021/07/06 08:11:34;;;;;;;3.78;1.48;;;14.10;99.90;;;;;;4987986;28;20015;-96
2021/07/06 08:14:05;;;;;;;5.75;1.48;;;14.20;99.90;;;;;;4991737;28;20073;-95
2021/07/06 08:16:31;;;;;;;4.35;1.05;;;14.30;99.90;;;;;;4981058;28;20018;-94
2021/07/06 08:18:59;;;;;;;1.95;0.88;;;14.40;99.90;;;;;;4995788;28;20046;-96
2021/07/06 08:21:26;;;;;;;1.05;0.95;;;14.40;99.90;;;;;;4993032;28;20049;-96
2021/07/06 08:23:52;;;;;;;1.77;0.90;;;14.40;99.90;;;;;;4984199;28;20030;-96
2021/07/06 08:26:18;;;;;;;2.03;1.00;;;14.40;99.90;;;;;;4993355;28;20110;-95
2021/07/06 08:28:45;;;;;;;1.27;1.17;;;14.30;99.90;;;;;;5001857;28;20069;-95
2021/07/06 08:36:24;;;;;;;1.40;1.30;;;14.30;99.90;;;;;;5240669;23;20061;-95
2021/07/06 08:38:50;;;;;;;2.63;1.10;;;14.30;99.90;;;;;;4982775;28;20039;-94
2021/07/06 08:41:15;;;;;;;2.50;0.98;;;14.40;99.90;;;;;;4992001;28;20480;-93
2021/07/06 08:43:42;;;;;;;1.33;0.80;;;14.50;99.90;;;;;;4986396;28;20034;-96
2021/07/06 08:56:42;;;;;;;2.70;0.93;;;14.80;99.90;;;;;;5174967;23;20039;-95
2021/07/06 09:01:46;;;;;;;1.17;1.08;;;15.00;99.90;;;;;;5941536;23;20010;-94
2021/07/06 09:18:09;;;;;;;2.25;1.02;;;15.50;99.90;;;;;;5260558;23;20341;-94
2021/07/06 09:20:36;;;;;;;2.97;1.83;;;15.70;99.90;;;;;;5010441;23;20047;-96
2021/07/06 09:23:21;;;;;;;7.97;4.15;;;15.90;99.90;;;;;;4968079;28;20011;-95
2021/07/06 09:36:31;;;;;;;1.70;1.08;;;16.50;99.90;;;;;;4956041;29;20074;-94
2021/07/06 09:39:24;;;;;;;1.63;0.88;;;16.60;99.90;;;;;;5040193;23;20203;-95
2021/07/06 09:41:58;;;;;;;2.28;0.60;;;16.70;99.90;;;;;;5015077;28;20018;-95
2021/07/06 09:44:30;;;;;;;0.80;0.70;;;16.70;99.90;;;;;;5018776;28;20045;-95
2021/07/06 09:46:59;;;;;;;0.95;0.45;;;16.60;99.90;;;;;;4998959;28;20022;-95
2021/07/06 09:49:28;;;;;;;0.47;0.30;;;16.50;99.90;;;;;;5006064;28;20002;-94
2021/07/06 10:06:14;;;;;;;0.50;0.50;;;17.20;99.90;;;;;;5964918;23;20038;-95
2021/07/06 10:08:41;;;;;;;0.80;0.40;;;17.20;99.90;;;;;;5399518;23;20065;-96
2021/07/06 10:24:19;;;;;;;0.22;0.20;;;16.20;99.90;;;;;;5012577;28;20027;-96
2021/07/06 10:26:47;;;;;;;1.25;0.35;;;16.20;99.90;;;;;;5005800;28;20033;-94
2021/07/06 10:29:13;;;;;;;1.27;0.32;;;16.20;99.90;;;;;;5009995;28;20021;-93
2021/07/06 10:31:43;;;;;;;0.30;0.30;;;16.10;99.90;;;;;;5004743;28;20033;-94
2021/07/06 10:34:20;;;;;;;1.75;0.43;;;16.10;99.90;;;;;;4995221;28;20667;-94
2021/07/06 10:36:49;;;;;;;1.65;0.40;;;16.10;99.90;;;;;;5002706;28;20038;-95
2021/07/06 10:39:18;;;;;;;0.60;0.60;;;16.00;99.90;;;;;;5006852;28;20121;-94
2021/07/06 10:41:54;;;;;;;0.30;0.30;;;15.90;99.90;;;;;;4980985;28;20026;-93
2021/07/06 10:44:31;;;;;;;0.75;0.30;;;15.80;99.90;;;;;;4997417;28;20030;-95
2021/07/06 10:46:56;;;;;;;0.95;0.25;;;15.70;99.90;;;;;;4999736;28;20037;-95
2021/07/06 10:49:25;;;;;;;0.75;0.40;;;15.70;99.90;;;;;;5013524;28;20046;-94
2021/07/06 10:51:53;;;;;;;0.43;0.40;;;15.60;99.90;;;;;;5015771;28;20010;-96
2021/07/06 10:54:29;;;;;;;1.42;0.50;;;15.60;99.90;;;;;;5011905;28;20022;-95
2021/07/06 10:56:59;;;;;;;0.70;0.68;;;15.60;99.90;;;;;;5008175;28;20014;-95
2021/07/06 10:59:31;;;;;;;0.50;0.50;;;15.60;99.90;;;;;;5005973;28;20093;-95
2021/07/06 11:02:05;;;;;;;1.73;0.70;;;15.60;99.90;;;;;;5008122;28;20080;-95
2021/07/06 11:04:42;;;;;;;2.22;0.63;;;15.70;99.90;;;;;;4996690;28;20093;-94
2021/07/06 11:07:35;;;;;;;0.85;0.60;;;15.80;99.90;;;;;;4999883;28;20471;-95
2021/07/06 11:10:08;;;;;;;1.15;0.80;;;15.90;99.90;;;;;;5016201;28;20057;-95
2021/07/06 11:12:47;;;;;;;0.40;0.40;;;16.00;99.90;;;;;;4999156;28;20040;-94
2021/07/06 11:15:14;;;;;;;0.43;0.40;;;16.20;99.90;;;;;;5009484;28;20022;-94
2021/07/06 11:17:46;;;;;;;0.50;0.50;;;16.30;99.90;;;;;;5008254;28;20030;-96
2021/07/06 11:20:17;;;;;;;2.28;0.77;;;16.30;99.90;;;;;;5009059;28;20122;-95
2021/07/06 11:22:53;;;;;;;2.55;0.90;;;16.20;99.90;;;;;;5025143;28;20037;-95
2021/07/06 11:25:35;;;;;;;1.88;0.98;;;16.00;99.90;;;;;;5014395;28;20018;-96
2021/07/06 11:28:24;;;;;;;2.65;1.30;;;15.90;99.90;;;;;;5013213;28;20019;-95
2021/07/06 11:30:57;;;;;;;1.45;1.35;;;15.90;99.90;;;;;;5033110;28;20010;-96
2021/07/06 11:33:33;;;;;;;1.90;1.75;;;15.90;99.90;;;;;;5018174;28;20010;-95
2021/07/06 11:36:06;;;;;;;2.40;1.15;;;16.10;99.90;;;;;;5016508;28;20003;-96
2021/07/06 11:41:09;;;;;;;1.73;1.10;;;16.70;99.90;;;;;;5167612;23;20067;-94
2021/07/06 11:43:38;;;;;;;1.83;1.58;;;17.00;99.90;;;;;;5052032;23;20072;-95
2021/07/06 11:48:54;;;;;;;4.93;0.88;;;17.40;99.90;;;;;;5545354;23;20034;31
2021/07/06 17:52:12;;;;;;;;;;;;;;;;;;;;;
2021/07/06 17:59:59;;;;;;;2.15;0.40;;;17.40;97.10;;;;;;5180891;23;20050;-94
2021/07/06 18:05:08;;;;;;;2.38;0.73;;;17.20;97.60;;;;;;6048535;23;20292;-96
2021/07/06 18:07:39;;;;;;;1.48;0.60;;;17.10;98.00;;;;;;4995999;23;20031;-96
2021/07/06 18:15:18;;;;;;;1.75;0.90;;;16.90;99.90;;;;;;5416938;23;20497;-93
2021/07/06 18:17:46;;;;;;;1.42;0.88;;;16.80;99.90;;;;;;5008301;28;20018;-95
2021/07/06 18:22:50;;;;;;;3.38;1.02;;;16.90;99.90;;;;;;5278095;23;20052;-95
2021/07/06 18:36:22;;;;;;;4.45;0.90;;;16.40;99.90;;;;;;1018508;23;20302;-95
2021/07/06 18:41:56;;;;;;;3.13;1.67;;;16.20;99.90;;;;;;5722589;23;20021;-94
2021/07/06 18:44:21;;;;;;;2.67;1.08;;;16.00;99.90;;;;;;5019666;28;20054;-94
2021/07/06 18:46:47;;;;;;;2.20;1.13;;;16.00;99.90;;;;;;5010996;28;20110;-94
2021/07/06 18:49:14;;;;;;;2.53;1.00;;;15.90;99.90;;;;;;5007645;28;20022;-96
2021/07/06 18:51:41;;;;;;;2.70;1.25;;;15.80;99.90;;;;;;5028541;28;20014;-96
2021/07/06 18:54:06;;;;;;;2.38;1.30;;;15.70;99.90;;;;;;5034332;28;20025;-96
2021/07/06 18:56:32;;;;;;;1.48;1.08;;;15.60;99.90;;;;;;5477352;23;20021;-94
2021/07/06 18:58:58;;;;;;;3.33;1.48;;;15.60;99.90;;;;;;5249152;23;20054;-93
2021/07/06 19:01:24;;;;;;;4.95;1.48;;;15.50;99.90;;;;;;4995351;28;20033;-94
2021/07/06 19:03:50;;;;;;;2.30;1.20;;;15.40;99.90;;;;;;4997241;28;20135;-92
2021/07/06 19:06:15;;;;;;;2.25;1.30;;;15.20;99.90;;;;;;4976491;28;20023;-93
2021/07/06 19:08:41;;;;;;;3.22;1.60;;;15.20;99.90;;;;;;5005497;28;20038;-94
2021/07/06 19:11:08;;;;;;;4.50;1.42;;;15.10;99.90;;;;;;5004416;28;20026;-95
2021/07/06 19:13:49;;;;;;;2.25;1.50;;;15.00;99.90;;;;;;5011162;28;20488;-95
2021/07/06 19:16:15;;;;;;;1.65;1.40;;;14.90;99.90;;;;;;4983054;28;20019;-94
2021/07/06 19:18:43;;;;;;;4.78;1.30;;;14.80;99.90;;;;;;4987039;28;20038;-95
2021/07/06 19:21:09;;;;;;;1.08;0.98;;;14.70;99.90;;;;;;4983258;28;20031;-96
2021/07/06 19:26:32;;;;;;;1.98;1.15;;;14.50;99.90;;;;;;5053068;23;20054;-96
2021/07/06 19:31:32;;;;;;;2.72;1.10;;;14.40;99.90;;;;;;5017669;28;20120;-95
2021/07/06 19:36:54;;;;;;;2.58;1.00;;;14.30;99.90;;;;;;5073384;27;1337208;-94
2021/07/06 19:39:19;;;;;;;2.60;0.85;;;14.30;99.90;;;;;;5169204;23;20053;-96
2021/07/06 19:41:46;;;;;;;1.05;0.90;;;14.30;99.90;;;;;;5041423;28;20692;-96
2021/07/06 19:44:11;;;;;;;1.58;1.23;;;14.30;99.90;;;;;;5047610;28;20040;-95
2021/07/06 19:46:37;;;;;;;3.38;0.93;;;14.20;99.90;;;;;;5048653;28;20116;-95
2021/07/06 19:49:04;;;;;;;2.15;0.73;;;14.20;99.90;;;;;;5036165;28;20392;-96
2021/07/06 19:51:30;;;;;;;1.98;1.00;;;14.20;99.90;;;;;;5032046;28;20060;-95
2021/07/06 19:53:57;;;;;;;1.67;0.90;;;14.10;99.90;;;;;;5029947;28;20029;-94
2021/07/06 19:56:26;;;;;;;1.08;0.90;;;14.10;99.90;;;;;;5024860;28;20472;-96
2021/07/06 19:58:53;;;;;;;2.05;0.95;;;14.10;99.90;;;;;;5030616;28;20030;-95
2021/07/06 20:01:19;;;;;;;1.73;1.00;;;14.10;99.90;;;;;;5025667;28;20030;-95
2021/07/06 20:03:45;;;;;;;1.45;0.82;;;14.00;99.90;;;;;;5028388;28;20112;-96
2021/07/06 20:06:11;;;;;;;1.77;1.10;;;14.00;99.90;;;;;;5023861;28;20460;-94
2021/07/06 20:08:37;;;;;;;2.83;1.00;;;14.00;99.90;;;;;;5029678;28;20018;-95
2021/07/06 20:11:06;;;;;;;1.15;0.90;;;14.00;99.90;;;;;;5021107;28;20252;-94
2021/07/06 20:13:42;;;;;;;1.48;1.13;;;14.00;99.90;;;;;;5030043;28;20004;-95
2021/07/06 20:16:08;;;;;;;1.35;1.25;;;14.00;99.90;;;;;;5029880;28;20026;-93
2021/07/06 20:18:36;;;;;;;1.80;1.17;;;14.00;99.90;;;;;;5022190;28;20021;-95
2021/07/06 20:21:03;;;;;;;1.45;1.05;;;14.00;99.90;;;;;;5027437;28;20030;-95
2021/07/06 20:23:30;;;;;;;2.03;1.50;;;14.00;99.90;;;;;;5019912;28;20018;-95
2021/07/06 20:25:57;;;;;;;2.13;1.15;;;13.90;99.90;;;;;;5019198;28;20041;-95
2021/07/06 20:28:23;;;;;;;2.00;1.02;;;13.90;99.90;;;;;;5021917;28;20017;-95
2021/07/06 20:30:49;;;;;;;1.63;1.00;;;13.90;99.90;;;;;;5016580;28;20083;-95
2021/07/06 20:33:16;;;;;;;2.42;1.08;;;13.90;99.90;;;;;;5014639;28;20100;-94
2021/07/06 20:35:42;;;;;;;2.30;1.27;;;13.90;99.90;;;;;;5015540;28;20042;-95
2021/07/06 20:38:08;;;;;;;2.03;1.15;;;13.80;99.90;;;;;;5020051;28;20065;-94
2021/07/06 20:40:45;;;;;;;2.13;1.42;;;13.90;99.90;;;;;;5024505;28;20054;-95
2021/07/06 20:43:10;;;;;;;4.70;1.40;;;13.90;99.90;;;;;;5016948;28;20022;-95
2021/07/06 20:45:36;;;;;;;5.18;1.55;;;13.80;99.90;;;;;;5023905;28;20029;-95
2021/07/06 20:48:04;;;;;;;3.25;1.63;;;13.80;99.90;;;;;;5010037;28;20129;-94
2021/07/06 20:50:31;;;;;;;4.57;2.00;;;13.80;99.90;;;;;;5005208;28;20030;-94